createdAt,value
2018-06-18T00:02:18.387Z,99.90
2018-06-18T00:04:46.531Z,99.90
2018-06-18T00:07:14.690Z,99.90
2018-06-18T00:09:42.853Z,99.90
2018-06-18T00:12:11.013Z,99.90
2018-06-18T00:14:39.172Z,99.90
2018-06-18T00:17:07.325Z,99.90
2018-06-18T00:19:35.490Z,99.90
2018-06-18T00:22:03.645Z,99.90
2018-06-18T00:24:31.810Z,99.90
2018-06-18T00:26:59.973Z,99.90
2018-06-18T00:29:28.108Z,99.90
2018-06-18T00:31:56.265Z,99.90
2018-06-18T00:34:24.409Z,99.90
2018-06-18T00:36:52.605Z,99.90
2018-06-18T00:39:20.748Z,99.90
2018-06-18T00:44:16.881Z,99.90
2018-06-18T00:46:45.074Z,99.90
2018-06-18T00:49:13.298Z,99.90
2018-06-18T00:51:41.505Z,99.90
2018-06-18T00:54:09.699Z,99.90
2018-06-18T00:59:05.882Z,99.90
2018-06-18T01:01:34.030Z,99.90
2018-06-18T01:04:02.197Z,99.90
2018-06-18T01:06:30.356Z,99.90
2018-06-18T01:11:26.453Z,99.90
2018-06-18T01:13:54.617Z,99.90
2018-06-18T01:16:22.781Z,99.90
2018-06-18T01:18:50.954Z,99.90
2018-06-18T01:21:19.097Z,99.90
2018-06-18T01:26:17.594Z,99.90
2018-06-18T01:31:13.748Z,99.90
2018-06-18T01:36:09.873Z,99.90
2018-06-18T01:41:06.410Z,99.90
2018-06-18T01:43:34.557Z,99.90
2018-06-18T01:46:02.710Z,99.90
2018-06-18T01:48:30.865Z,99.90
2018-06-18T01:50:59.026Z,99.90
2018-06-18T01:55:55.122Z,99.90
2018-06-18T01:58:23.295Z,99.90
2018-06-18T02:00:51.482Z,99.90
2018-06-18T02:03:19.637Z,99.90
2018-06-18T02:05:47.801Z,99.90
2018-06-18T02:08:16.001Z,99.90
2018-06-18T02:10:44.165Z,99.90
2018-06-18T02:13:12.341Z,99.90
2018-06-18T02:15:40.490Z,99.90
2018-06-18T02:18:08.666Z,99.90
2018-06-18T02:20:36.825Z,99.90
2018-06-18T02:23:05.034Z,99.90
2018-06-18T02:25:33.208Z,99.90
2018-06-18T02:28:06.649Z,99.90
2018-06-18T02:33:13.682Z,99.90
2018-06-18T02:36:48.086Z,99.90
2018-06-18T02:39:16.402Z,99.90
2018-06-18T02:41:45.645Z,99.90
2018-06-18T02:44:14.486Z,99.90
2018-06-18T02:46:42.646Z,99.90
2018-06-18T02:49:10.806Z,99.90
2018-06-18T02:51:38.994Z,99.90
2018-06-18T02:54:08.157Z,99.90
2018-06-18T02:56:52.577Z,99.90
2018-06-18T02:59:20.734Z,99.90
2018-06-18T03:01:48.940Z,99.90
2018-06-18T03:04:17.108Z,99.90
2018-06-18T03:06:45.271Z,99.90
2018-06-18T03:09:13.462Z,99.90
2018-06-18T03:11:41.658Z,99.90
2018-06-18T03:16:38.410Z,99.90
2018-06-18T03:19:11.789Z,99.90
2018-06-18T03:21:45.511Z,99.90
2018-06-18T03:24:19.145Z,99.90
2018-06-18T03:26:52.762Z,99.90
2018-06-18T03:29:22.945Z,99.90
2018-06-18T03:34:19.818Z,99.90
2018-06-18T03:41:47.092Z,99.90
2018-06-18T03:44:19.131Z,99.90
2018-06-18T03:46:47.278Z,99.90
2018-06-18T03:49:15.437Z,99.90
2018-06-18T03:51:43.614Z,99.90
2018-06-18T03:54:11.764Z,99.90
2018-06-18T03:56:39.923Z,99.90
2018-06-18T03:59:08.094Z,99.90
2018-06-18T04:04:20.725Z,99.90
2018-06-18T04:06:54.409Z,99.90
2018-06-18T04:09:28.011Z,99.90
2018-06-18T04:12:01.745Z,99.90
2018-06-18T04:16:57.810Z,99.90
2018-06-18T04:19:25.998Z,99.90
2018-06-18T04:21:54.134Z,99.90
2018-06-18T04:24:22.289Z,99.90
2018-06-18T04:26:50.461Z,99.90
2018-06-18T04:29:21.311Z,99.90
2018-06-18T04:31:51.580Z,99.90
2018-06-18T04:34:26.566Z,99.90
2018-06-18T04:39:22.830Z,99.90
2018-06-18T04:41:56.490Z,99.90
2018-06-18T04:44:30.147Z,99.90
2018-06-18T04:47:03.734Z,99.90
2018-06-18T04:50:39.829Z,99.90
2018-06-18T04:53:07.990Z,99.90
2018-06-18T04:55:36.149Z,99.90
2018-06-18T04:58:04.318Z,99.90
2018-06-18T05:03:06.847Z,99.90
2018-06-18T05:05:35.001Z,99.90
2018-06-18T05:08:43.671Z,99.90
2018-06-18T05:11:11.831Z,99.90
2018-06-18T05:13:39.970Z,99.90
2018-06-18T05:16:08.206Z,99.90
2018-06-18T05:18:36.394Z,99.90
2018-06-18T05:21:04.550Z,99.90
2018-06-18T05:23:32.742Z,99.90
2018-06-18T05:28:29.257Z,99.90
2018-06-18T05:30:57.609Z,99.90
2018-06-18T05:33:25.778Z,99.90
2018-06-18T05:35:53.992Z,99.90
2018-06-18T05:38:30.077Z,99.90
2018-06-18T05:40:58.969Z,99.90
2018-06-18T05:45:55.191Z,99.90
2018-06-18T05:48:23.351Z,99.90
2018-06-18T05:50:51.670Z,99.90
2018-06-18T05:55:47.781Z,99.90
2018-06-18T05:58:15.948Z,99.90
2018-06-18T06:00:44.153Z,99.90
2018-06-18T06:03:12.301Z,99.90
2018-06-18T06:05:40.484Z,99.90
2018-06-18T06:08:08.752Z,99.90
2018-06-18T06:10:37.291Z,99.90
2018-06-18T06:13:06.325Z,99.90
2018-06-18T06:15:34.514Z,99.90
2018-06-18T06:18:02.687Z,99.90
2018-06-18T06:20:30.858Z,99.90
2018-06-18T06:22:59.033Z,97.00
2018-06-18T06:25:27.199Z,98.50
2018-06-18T06:27:55.369Z,93.50
2018-06-18T06:30:23.538Z,85.30
2018-06-18T06:32:51.726Z,80.00
2018-06-18T06:35:23.815Z,80.00
2018-06-18T06:37:52.085Z,78.40
2018-06-18T06:40:20.256Z,78.70
2018-06-18T06:42:48.439Z,79.10
2018-06-18T06:45:16.593Z,80.70
2018-06-18T06:47:44.765Z,78.40
2018-06-18T06:50:12.919Z,76.40
2018-06-18T06:52:41.077Z,73.60
2018-06-18T06:55:09.216Z,65.30
2018-06-18T07:02:33.841Z,62.40
2018-06-18T07:09:58.016Z,60.60
2018-06-18T07:12:26.177Z,60.20
2018-06-18T07:14:54.330Z,64.00
2018-06-18T07:17:22.546Z,59.90
2018-06-18T07:19:50.718Z,57.80
2018-06-18T07:22:18.877Z,59.70
2018-06-18T07:24:47.104Z,55.80
2018-06-18T07:29:43.189Z,57.90
2018-06-18T07:32:11.382Z,59.40
2018-06-18T07:34:39.552Z,58.80
2018-06-18T07:37:08.069Z,59.60
2018-06-18T07:39:36.219Z,58.80
2018-06-18T07:42:04.374Z,59.60
2018-06-18T07:44:32.537Z,59.10
2018-06-18T07:47:00.714Z,59.70
2018-06-18T07:49:28.898Z,57.00
2018-06-18T07:51:57.058Z,60.00
2018-06-18T07:54:25.218Z,58.30
2018-06-18T07:56:53.365Z,62.60
2018-06-18T08:01:49.482Z,59.20
2018-06-18T08:04:17.640Z,62.00
2018-06-18T08:06:45.806Z,60.20
2018-06-18T08:09:14.479Z,61.80
2018-06-18T08:11:43.219Z,60.80
2018-06-18T08:14:11.394Z,59.90
2018-06-18T08:16:39.549Z,59.50
2018-06-18T08:19:07.800Z,61.70
2018-06-18T08:21:36.029Z,64.50
2018-06-18T08:26:32.126Z,59.70
2018-06-18T08:29:00.334Z,59.20
2018-06-18T08:31:28.494Z,58.90
2018-06-18T08:33:56.665Z,58.40
2018-06-18T08:36:25.174Z,58.50
2018-06-18T08:41:21.340Z,58.70
2018-06-18T08:43:49.534Z,58.90
2018-06-18T08:46:17.718Z,57.60
2018-06-18T08:48:51.098Z,55.80
2018-06-18T08:51:24.598Z,55.60
2018-06-18T08:53:58.258Z,57.40
2018-06-18T08:59:05.310Z,57.20
2018-06-18T09:01:34.649Z,53.00
2018-06-18T09:04:08.163Z,53.60
2018-06-18T09:09:05.846Z,55.80
2018-06-18T09:14:01.972Z,53.50
2018-06-18T09:16:30.144Z,53.90
2018-06-18T09:18:58.337Z,53.20
2018-06-18T09:23:54.441Z,49.00
2018-06-18T09:26:22.625Z,48.90
2018-06-18T09:28:50.795Z,49.20
2018-06-18T09:31:18.990Z,48.90
2018-06-18T09:33:47.132Z,49.00
2018-06-18T09:36:15.309Z,51.40
2018-06-18T09:38:43.505Z,49.50
2018-06-18T09:41:11.681Z,50.40
2018-06-18T09:43:39.834Z,50.40
2018-06-18T09:46:08.011Z,50.60
2018-06-18T09:48:41.592Z,51.20
2018-06-18T09:51:15.261Z,50.20
2018-06-18T09:53:48.670Z,49.20
2018-06-18T09:56:22.273Z,50.50
2018-06-18T09:58:55.898Z,51.30
2018-06-18T10:01:29.590Z,52.00
2018-06-18T10:03:57.888Z,52.80
2018-06-18T10:06:26.469Z,54.10
2018-06-18T10:08:54.626Z,53.60
2018-06-18T10:11:22.802Z,53.60
2018-06-18T10:13:50.969Z,55.00
2018-06-18T10:16:19.132Z,55.00
2018-06-18T10:18:47.306Z,55.60
2018-06-18T10:21:15.465Z,56.40
2018-06-18T10:23:43.630Z,54.80
2018-06-18T10:28:39.709Z,54.70
2018-06-18T10:31:07.874Z,55.10
2018-06-18T10:33:41.570Z,55.70
2018-06-18T10:36:14.907Z,57.40
2018-06-18T10:38:48.585Z,58.90
2018-06-18T10:41:22.272Z,57.60
2018-06-18T10:43:50.443Z,58.10
2018-06-18T10:46:18.641Z,59.00
2018-06-18T10:48:46.798Z,58.50
2018-06-18T10:51:14.982Z,57.00
2018-06-18T10:53:43.157Z,57.50
2018-06-18T10:56:11.318Z,56.50
2018-06-18T10:58:39.451Z,57.10
2018-06-18T11:01:09.544Z,59.00
2018-06-18T11:03:37.709Z,59.00
2018-06-18T11:06:11.177Z,58.30
2018-06-18T11:08:39.356Z,58.30
2018-06-18T11:11:07.531Z,58.80
2018-06-18T11:13:35.726Z,59.70
2018-06-18T11:16:04.004Z,61.50
2018-06-18T11:18:37.530Z,62.90
2018-06-18T11:21:11.128Z,63.10
2018-06-18T11:23:44.511Z,62.90
2018-06-18T11:26:18.210Z,61.30
2018-06-18T11:28:46.386Z,61.60
2018-06-18T11:31:14.579Z,61.90
2018-06-18T11:33:42.697Z,61.30
2018-06-18T11:36:10.870Z,63.40
2018-06-18T11:38:38.998Z,62.90
2018-06-18T11:41:07.166Z,61.10
2018-06-18T11:43:35.376Z,61.00
2018-06-18T11:46:03.520Z,62.00
2018-06-18T11:48:31.693Z,59.80
2018-06-18T11:50:59.863Z,59.20
2018-06-18T11:53:28.038Z,60.00
2018-06-18T11:55:56.232Z,58.30
2018-06-18T11:58:29.727Z,58.40
2018-06-18T12:01:03.279Z,58.80
2018-06-18T12:03:36.866Z,56.70
2018-06-18T12:06:10.497Z,57.30
2018-06-18T12:08:44.037Z,57.60
2018-06-18T12:11:12.233Z,59.80
2018-06-18T12:13:40.381Z,59.10
2018-06-18T12:16:08.601Z,59.80
2018-06-18T12:18:36.795Z,58.80
2018-06-18T12:21:04.986Z,58.50
2018-06-18T12:23:33.162Z,58.50
2018-06-18T12:26:01.338Z,59.80
2018-06-18T12:28:29.501Z,57.20
2018-06-18T12:30:57.709Z,57.60
2018-06-18T12:33:25.866Z,60.50
2018-06-18T12:35:54.139Z,58.40
2018-06-18T12:38:22.270Z,57.40
2018-06-18T12:40:50.441Z,57.10
2018-06-18T12:43:21.333Z,56.20
2018-06-18T12:45:57.367Z,56.60
2018-06-18T12:48:30.937Z,56.70
2018-06-18T12:51:04.497Z,56.80
2018-06-18T12:53:38.141Z,58.70
2018-06-18T12:56:11.861Z,60.70
2018-06-18T12:58:40.041Z,56.20
2018-06-18T13:01:10.528Z,56.90
2018-06-18T13:03:38.718Z,57.40
2018-06-18T13:06:06.933Z,57.80
2018-06-18T13:08:35.139Z,57.40
2018-06-18T13:13:31.265Z,56.90
2018-06-18T13:15:59.443Z,56.80
2018-06-18T13:18:27.685Z,56.90
2018-06-18T13:20:55.877Z,58.30
2018-06-18T13:23:24.092Z,57.90
2018-06-18T13:25:52.309Z,62.40
2018-06-18T13:28:20.500Z,59.60
2018-06-18T13:30:48.666Z,59.60
2018-06-18T13:33:16.866Z,59.80
2018-06-18T13:35:45.080Z,58.60
2018-06-18T13:38:18.590Z,58.50
2018-06-18T13:40:52.146Z,58.50
2018-06-18T13:43:25.793Z,59.10
2018-06-18T13:45:58.174Z,59.40
2018-06-18T13:48:32.021Z,59.30
2018-06-18T13:51:00.220Z,58.10
2018-06-18T13:55:56.487Z,58.70
2018-06-18T13:58:24.696Z,59.10
2018-06-18T14:00:52.894Z,58.90
2018-06-18T14:03:21.113Z,59.30
2018-06-18T14:05:49.288Z,58.70
2018-06-18T14:08:17.477Z,58.80
2018-06-18T14:10:45.726Z,58.90
2018-06-18T14:13:13.961Z,59.80
2018-06-18T14:15:42.162Z,59.00
2018-06-18T14:18:10.356Z,59.90
2018-06-18T14:20:38.539Z,58.40
2018-06-18T14:23:06.751Z,59.90
2018-06-18T14:25:34.987Z,57.70
2018-06-18T14:28:03.210Z,58.20
2018-06-18T14:30:36.783Z,57.80
2018-06-18T14:33:10.392Z,57.90
2018-06-18T14:35:44.074Z,59.00
2018-06-18T14:38:17.784Z,59.80
2018-06-18T14:40:46.034Z,60.30
2018-06-18T14:43:14.369Z,58.80
2018-06-18T14:45:42.750Z,58.90
2018-06-18T14:48:11.067Z,60.00
2018-06-18T14:50:39.283Z,62.10
2018-06-18T14:53:07.593Z,61.60
2018-06-18T14:55:35.860Z,61.20
2018-06-18T14:58:04.187Z,60.30
2018-06-18T15:00:33.840Z,59.90
2018-06-18T15:03:02.160Z,59.70
2018-06-18T15:05:42.431Z,59.90
2018-06-18T15:08:10.761Z,59.90
2018-06-18T15:10:44.342Z,61.30
2018-06-18T15:13:13.997Z,61.10
2018-06-18T15:18:15.687Z,62.70
2018-06-18T15:20:43.879Z,61.70
2018-06-18T15:23:12.056Z,62.60
2018-06-18T15:25:54.986Z,63.70
2018-06-18T15:28:23.165Z,64.90
2018-06-18T15:30:51.392Z,66.00
2018-06-18T15:33:19.577Z,66.60
2018-06-18T15:35:47.757Z,69.10
2018-06-18T15:38:15.990Z,70.20
2018-06-18T15:40:44.122Z,72.90
2018-06-18T15:43:12.298Z,71.80
2018-06-18T15:45:40.486Z,67.40
2018-06-18T15:48:08.669Z,67.80
2018-06-18T15:50:36.898Z,67.30
2018-06-18T15:53:05.081Z,67.10
2018-06-18T15:55:33.291Z,68.80
2018-06-18T15:58:01.515Z,66.30
2018-06-18T16:02:57.636Z,67.20
2018-06-18T16:05:25.822Z,67.10
2018-06-18T16:10:21.938Z,65.40
2018-06-18T16:12:50.125Z,66.50
2018-06-18T16:15:18.313Z,66.30
2018-06-18T16:22:42.437Z,66.00
2018-06-18T16:25:10.623Z,65.50
2018-06-18T16:27:38.814Z,66.80
2018-06-18T16:30:06.986Z,67.40
2018-06-18T16:32:35.245Z,69.20
2018-06-18T16:35:03.445Z,68.90
2018-06-18T16:37:31.621Z,68.80
2018-06-18T16:39:59.794Z,68.90
2018-06-18T16:42:27.960Z,70.70
2018-06-18T16:44:56.131Z,70.90
2018-06-18T16:47:24.285Z,71.90
2018-06-18T16:49:52.462Z,70.90
2018-06-18T16:52:20.621Z,70.90
2018-06-18T16:54:48.813Z,71.00
2018-06-18T16:57:17.016Z,70.80
2018-06-18T16:59:45.232Z,72.20
2018-06-18T17:02:13.417Z,70.70
2018-06-18T17:04:41.584Z,72.20
2018-06-18T17:07:09.762Z,71.00
2018-06-18T17:09:37.949Z,72.10
2018-06-18T17:12:06.183Z,73.40
2018-06-18T17:14:34.383Z,72.70
2018-06-18T17:19:30.499Z,74.50
2018-06-18T17:21:58.698Z,73.80
2018-06-18T17:26:54.841Z,71.10
2018-06-18T17:31:51.080Z,71.80
2018-06-18T17:36:47.149Z,73.90
2018-06-18T17:39:15.386Z,74.10
2018-06-18T17:41:43.530Z,75.00
2018-06-18T17:44:11.749Z,74.60
2018-06-18T17:51:35.861Z,74.60
2018-06-18T17:56:32.017Z,75.50
2018-06-18T18:01:28.166Z,75.20
2018-06-18T18:03:56.365Z,75.30
2018-06-18T18:06:24.546Z,77.00
2018-06-18T18:08:52.770Z,77.90
2018-06-18T18:13:49.091Z,79.60
2018-06-18T18:16:17.262Z,77.60
2018-06-18T18:18:45.513Z,78.30
2018-06-18T18:21:13.705Z,79.20
2018-06-18T18:23:41.881Z,80.60
2018-06-18T18:26:10.184Z,81.30
2018-06-18T18:28:38.428Z,81.20
2018-06-18T18:31:06.704Z,81.30
2018-06-18T18:33:34.917Z,81.30
2018-06-18T18:36:03.149Z,82.10
2018-06-18T18:38:31.516Z,82.70
2018-06-18T18:40:59.717Z,83.70
2018-06-18T18:43:27.934Z,84.90
2018-06-18T18:48:24.206Z,86.30
2018-06-18T18:50:52.538Z,85.90
2018-06-18T18:53:20.830Z,86.50
2018-06-18T18:59:32.757Z,87.10
2018-06-18T19:02:01.157Z,87.20
2018-06-18T19:04:34.748Z,88.50
2018-06-18T19:07:03.196Z,89.10
2018-06-18T19:09:35.609Z,90.10
2018-06-18T19:12:03.897Z,90.20
2018-06-18T19:14:32.090Z,90.80
2018-06-18T19:17:00.282Z,91.00
2018-06-18T19:19:33.028Z,91.00
2018-06-18T19:22:01.220Z,91.80
2018-06-18T19:24:29.427Z,92.10
2018-06-18T19:26:57.633Z,92.50
2018-06-18T19:29:25.894Z,93.00
2018-06-18T19:36:54.265Z,94.30
2018-06-18T19:39:24.634Z,95.00
2018-06-18T19:41:52.902Z,95.50
2018-06-18T19:46:58.273Z,96.00
2018-06-18T19:51:54.361Z,97.20
2018-06-18T19:54:25.442Z,97.20
2018-06-18T19:56:53.626Z,97.60
2018-06-18T20:04:17.730Z,99.50
2018-06-18T20:06:45.921Z,99.80
2018-06-18T20:09:14.114Z,99.90
2018-06-18T20:11:42.789Z,99.90
2018-06-18T20:14:10.980Z,99.90
2018-06-18T20:16:39.154Z,99.90
2018-06-18T20:19:07.347Z,99.90
2018-06-18T20:21:35.501Z,99.90
2018-06-18T20:24:03.781Z,99.90
2018-06-18T20:26:31.951Z,99.90
2018-06-18T20:29:00.138Z,99.90
2018-06-18T20:31:28.353Z,99.90
2018-06-18T20:33:57.490Z,99.90
2018-06-18T20:36:26.779Z,99.90
2018-06-18T20:38:54.985Z,99.90
2018-06-18T20:41:23.741Z,99.90
2018-06-18T20:43:59.593Z,99.90
2018-06-18T20:46:27.793Z,99.90
2018-06-18T20:48:55.954Z,99.90
2018-06-18T20:51:24.129Z,99.90
2018-06-18T20:53:52.396Z,99.90
2018-06-18T20:56:20.568Z,99.90
2018-06-18T20:58:48.822Z,99.90
2018-06-18T21:01:16.976Z,99.90
2018-06-18T21:03:45.193Z,99.90
2018-06-18T21:06:13.358Z,99.90
2018-06-18T21:13:37.455Z,99.90
2018-06-18T21:16:05.699Z,99.90
2018-06-18T21:18:33.855Z,99.90
2018-06-18T21:21:02.042Z,99.90
2018-06-18T21:23:30.252Z,99.90
2018-06-18T21:25:58.444Z,99.90
2018-06-18T21:28:26.637Z,99.90
2018-06-18T21:30:54.789Z,99.90
2018-06-18T21:35:50.896Z,99.90
2018-06-18T21:38:19.125Z,99.90
2018-06-18T21:40:47.298Z,99.90
2018-06-18T21:45:43.439Z,99.90
2018-06-18T21:48:11.633Z,99.90
2018-06-18T21:50:39.837Z,99.90
2018-06-18T21:53:08.023Z,99.90
2018-06-18T21:55:36.214Z,99.90
2018-06-18T21:58:04.888Z,99.90
2018-06-18T22:00:35.418Z,99.90
2018-06-18T22:03:03.611Z,99.90
2018-06-18T22:05:31.798Z,99.90
2018-06-18T22:08:00.227Z,99.90
2018-06-18T22:10:28.410Z,99.90
2018-06-18T22:12:56.609Z,99.90
2018-06-18T22:17:52.723Z,99.90
2018-06-18T22:20:20.993Z,99.90
2018-06-18T22:22:49.222Z,99.90
2018-06-18T22:25:17.414Z,99.90
2018-06-18T22:27:45.573Z,99.90
2018-06-18T22:30:13.741Z,99.90
2018-06-18T22:32:41.893Z,99.90
2018-06-18T22:35:10.113Z,99.90
2018-06-18T22:37:38.324Z,99.90
2018-06-18T22:40:06.512Z,99.90
2018-06-18T22:42:34.700Z,99.90
2018-06-18T22:47:30.822Z,99.90
2018-06-18T22:49:59.033Z,99.90
2018-06-18T22:52:27.184Z,99.90
2018-06-18T22:57:23.296Z,99.90
2018-06-18T22:59:51.468Z,99.90
2018-06-18T23:02:22.520Z,99.90
2018-06-18T23:04:50.703Z,99.90
2018-06-18T23:07:18.864Z,99.90
2018-06-18T23:09:47.054Z,99.90
2018-06-18T23:12:16.222Z,99.90
2018-06-18T23:14:44.552Z,99.90
2018-06-18T23:17:12.734Z,99.90
2018-06-18T23:22:08.834Z,99.90
2018-06-18T23:24:37.072Z,99.90
2018-06-18T23:27:05.622Z,99.90
2018-06-18T23:32:01.743Z,99.90
2018-06-18T23:34:29.950Z,99.90
2018-06-18T23:39:25.998Z,99.90
2018-06-18T23:41:55.875Z,99.90
2018-06-18T23:44:24.076Z,99.90
2018-06-18T23:46:52.300Z,99.90
2018-06-18T23:49:20.495Z,99.90
2018-06-18T23:51:48.689Z,99.90
2018-06-18T23:54:16.889Z,99.90
2018-06-18T23:56:45.070Z,99.90
2018-06-18T23:59:13.220Z,99.90
